Amado, AZ

12:56 PM MST on October 21, 2014 (GMT -0700)
Elephant Head | Change Station
CLOSE
Current Station
Personal Weather Station
Location: Amado, AZ
Elevation: 3155 ft
Nearby Weather Stations

Elev 3155 ft 31.74 °N, 111.01 °W | Updated 6 minutes ago

Clear
Clear
81.3 °F
Feels Like 79 °F
N
6.9
Wind Variable Wind from SE
Gusts 9.8 mph

Today
High -- | Low -- °F
--% Chance of Precip.
Yesterday
High -- | Low -- °F
Precip. -- in
6:31 AM 5:45 PM
Waning Crescent, 4% visible
Pressure 29.83 in
Visibility 10.0 miles
Clouds Clear
Heat Index 79 °F
Dew Point 20 °F
Humidity 10%
Rainfall 0.00 in
Snow Depth Not available.
UV 7 out of 12
Pollen 5.50 out of 12
Air Quality Not available.
Flu Activity No Activity
METAR KTUS 211853Z 12007KT 10SM CLR 27/08 A2996 RMK AO2 SLP102 T02720078

More Conditions Fewer Conditions

Pressure 29.83 in
Visibility 10.0 miles
Clouds Clear
Heat Index 79 °F
Dew Point 20 °F
Humidity 10%
Rainfall 0.00 in
Snow Depth Not available.
UV 7 out of 12
Pollen 5.50 out of 12
Air Quality Not available.
Flu Activity No Activity
METAR KTUS 211853Z 12007KT 10SM CLR 27/08 A2996 RMK AO2 SLP102 T02720078

More Conditions Fewer Conditions

10-Day Weather Forecast

Almanac

Astronomy

Oct. 21, 2014 Rise Set
Actual Time 6:31 AM MST 5:45 PM MST
Civil Twilight 6:07 AM MST 6:10 PM MST
Nautical Twilight 5:38 AM MST 6:38 PM MST
Astronomical Twilight 5:10 AM MST 7:06 PM MST
Moon 4:27 AM MST 4:35 PM MST
Length of Visible Light 12h 02m
Length of Day
11h 13m
Tomorrow will be 1m 48s shorter.
Waning Crescent, 4% of the Moon is Illuminated
Today
Waning Crescent
Oct 23
New
Oct 30
First Quarter
Nov 6
Full
Nov 14
Last Quarter

Today's Extremes

State Highs State Lows

Community

WunderPhotos

Upload Photos

1,763,754 photos uploaded!

Nearby

Snow Depth

Station Depth Elevation
Workman Creek 0 in 6900 ft
Beaver Head 0 in 7990 ft
Maverick Fork 0 in 9200 ft
Baldy 1 in 9125 ft
Snowslide Canyon 0 in 9730 ft

Earthquake Activity

City Distance Mag. Time & Date
No recent earthquake activity has been reported nearby.
Minimum magnitude displayed is 2.5.

Coastal Water Temperatures

Place Temperature
No Stations Reporting

Nearby Weather Stations